createdAt,value
2018-04-13T00:01:27.076Z,96868.06
2018-04-13T00:03:54.544Z,96867.92
2018-04-13T00:06:21.994Z,96872.48
2018-04-13T00:08:49.492Z,96867.27
2018-04-13T00:11:16.972Z,96870.98
2018-04-13T00:13:44.439Z,96863.47
2018-04-13T00:16:11.897Z,96861.63
2018-04-13T00:18:39.372Z,96861.91
2018-04-13T00:21:06.971Z,96867.31
2018-04-13T00:23:34.456Z,96867.54
2018-04-13T00:26:03.591Z,96874.18
2018-04-13T00:28:31.117Z,96870.28
2018-04-13T00:30:58.609Z,96878.30
2018-04-13T00:33:26.138Z,96874.08
2018-04-13T00:35:53.592Z,96867.08
2018-04-13T00:38:21.083Z,96873.22
2018-04-13T00:40:48.568Z,96873.27
2018-04-13T00:43:16.062Z,96873.18
2018-04-13T00:45:43.526Z,96870.94
2018-04-13T00:48:11.045Z,96879.91
2018-04-13T00:50:38.820Z,96879.86
2018-04-13T00:53:18.081Z,96882.45
2018-04-13T00:55:45.532Z,96881.98
2018-04-13T00:58:13.019Z,96883.52
2018-04-13T01:00:40.488Z,96887.67
2018-04-13T01:03:07.952Z,96882.67
2018-04-13T01:05:35.445Z,96890.97
2018-04-13T01:08:03.034Z,96893.66
2018-04-13T01:10:30.534Z,96890.98
2018-04-13T01:12:58.001Z,96888.02
2018-04-13T01:15:25.475Z,96890.27
2018-04-13T01:17:52.942Z,96885.38
2018-04-13T01:20:20.442Z,96885.34
2018-04-13T01:22:47.898Z,96880.80
2018-04-13T01:25:15.383Z,96878.34
2018-04-13T01:27:42.874Z,96875.43
2018-04-13T01:30:10.349Z,96872.42
2018-04-13T01:32:37.821Z,96869.45
2018-04-13T01:35:05.297Z,96872.17
2018-04-13T01:37:32.784Z,96869.71
2018-04-13T01:40:00.280Z,96865.09
2018-04-13T01:42:27.767Z,96862.22
2018-04-13T01:44:55.260Z,96865.23
2018-04-13T01:47:22.738Z,96864.56
2018-04-13T01:49:50.220Z,96865.06
2018-04-13T01:52:17.706Z,96873.52
2018-04-13T01:54:45.192Z,96866.00
2018-04-13T01:57:12.677Z,96872.23
2018-04-13T01:59:40.439Z,96875.33
2018-04-13T02:02:07.996Z,96876.72
2018-04-13T02:04:35.507Z,96877.58
2018-04-13T02:07:03.099Z,96874.51
2018-04-13T02:09:30.594Z,96880.15
2018-04-13T02:11:58.102Z,96881.00
2018-04-13T02:14:25.580Z,96886.72
2018-04-13T02:16:53.082Z,96890.63
2018-04-13T02:19:20.573Z,96893.67
2018-04-13T02:21:48.047Z,96890.48
2018-04-13T02:24:15.592Z,96890.48
2018-04-13T02:26:43.209Z,96884.94
2018-04-13T02:29:11.412Z,96886.68
2018-04-13T02:31:38.885Z,96888.20
2018-04-13T02:34:06.584Z,96886.81
2018-04-13T02:36:34.053Z,96892.35
2018-04-13T02:39:01.533Z,96897.36
2018-04-13T02:41:28.990Z,96901.73
2018-04-13T02:43:56.473Z,96912.96
2018-04-13T02:46:23.953Z,96913.39
2018-04-13T02:48:51.497Z,96917.45
2018-04-13T02:51:18.975Z,96913.69
2018-04-13T02:53:46.438Z,96906.11
2018-04-13T02:56:13.966Z,96908.61
2018-04-13T02:58:41.509Z,96913.58
2018-04-13T03:01:08.985Z,96911.29
2018-04-13T03:03:36.442Z,96913.91
2018-04-13T03:06:03.922Z,96912.80
2018-04-13T03:08:31.400Z,96910.22
2018-04-13T03:10:58.962Z,96913.10
2018-04-13T03:13:26.505Z,96911.95
2018-04-13T03:15:53.995Z,96910.86
2018-04-13T03:18:21.446Z,96916.16
2018-04-13T03:20:48.913Z,96920.77
2018-04-13T03:23:16.381Z,96929.48
2018-04-13T03:25:43.853Z,96928.52
2018-04-13T03:28:11.322Z,96930.30
2018-04-13T03:30:38.801Z,96928.13
2018-04-13T03:33:06.276Z,96931.34
2018-04-13T03:35:33.756Z,96931.39
2018-04-13T03:38:01.275Z,96931.71
2018-04-13T03:40:28.726Z,96939.59
2018-04-13T03:42:56.203Z,96936.92
2018-04-13T03:45:23.662Z,96940.47
2018-04-13T03:47:51.121Z,96940.39
2018-04-13T03:50:18.590Z,96931.52
2018-04-13T03:52:46.062Z,96941.47
2018-04-13T03:55:13.536Z,96946.21
2018-04-13T03:57:41.003Z,96951.30
2018-04-13T04:00:08.471Z,96952.07
2018-04-13T04:02:35.951Z,96954.62
2018-04-13T04:05:03.439Z,96961.06
2018-04-13T04:07:30.953Z,96960.52
2018-04-13T04:09:58.450Z,96967.42
2018-04-13T04:12:25.965Z,96958.52
2018-04-13T04:14:53.433Z,96964.07
2018-04-13T04:17:20.912Z,96966.95
2018-04-13T04:20:00.230Z,96978.16
2018-04-13T04:22:39.676Z,96977.22
2018-04-13T04:28:30.074Z,96977.56
2018-04-13T04:30:57.579Z,96980.58
2018-04-13T04:33:25.073Z,96989.18
2018-04-13T04:35:52.563Z,96991.51
2018-04-13T04:38:20.088Z,96993.38
2018-04-13T04:40:47.554Z,97001.22
2018-04-13T04:43:15.029Z,97006.44
2018-04-13T04:45:42.510Z,97011.98
2018-04-13T04:48:10.053Z,97016.88
2018-04-13T04:50:37.543Z,97017.38
2018-04-13T04:53:05.132Z,97021.95
2018-04-13T04:55:32.615Z,97030.34
2018-04-13T04:58:00.077Z,97039.33
2018-04-13T05:00:27.694Z,97039.45
2018-04-13T05:02:55.161Z,97045.41
2018-04-13T05:05:22.625Z,97044.05
2018-04-13T05:07:50.104Z,97048.70
2018-04-13T05:10:17.582Z,97041.16
2018-04-13T05:12:45.077Z,97045.58
2018-04-13T05:15:12.571Z,97056.86
2018-04-13T05:17:40.200Z,97057.63
2018-04-13T05:20:07.802Z,97060.34
2018-04-13T05:22:35.296Z,97058.25
2018-04-13T05:25:02.779Z,97061.22
2018-04-13T05:27:30.248Z,97057.34
2018-04-13T05:29:57.718Z,97058.25
2018-04-13T05:32:25.193Z,97057.85
2018-04-13T05:34:52.689Z,97057.53
2018-04-13T05:37:20.182Z,97066.44
2018-04-13T05:39:47.661Z,97062.72
2018-04-13T05:42:15.119Z,97062.06
2018-04-13T05:44:42.591Z,97058.17
2018-04-13T05:47:10.180Z,97058.45
2018-04-13T05:49:37.831Z,97062.61
2018-04-13T05:52:05.304Z,97065.61
2018-04-13T05:54:33.010Z,97065.47
2018-04-13T05:57:00.762Z,97059.64
2018-04-13T05:59:28.397Z,97054.47
2018-04-13T06:01:56.012Z,97054.13
2018-04-13T06:04:23.750Z,97055.48
2018-04-13T06:06:51.357Z,97056.81
2018-04-13T06:09:18.886Z,97053.05
2018-04-13T06:11:46.395Z,97060.36
2018-04-13T06:14:13.998Z,97061.56
2018-04-13T06:16:41.483Z,97058.80
2018-04-13T06:19:08.981Z,97063.12
2018-04-13T06:21:42.305Z,97060.52
2018-04-13T06:24:09.867Z,97064.03
2018-04-13T06:26:37.365Z,97063.73
2018-04-13T06:29:04.842Z,97068.60
2018-04-13T06:31:32.358Z,97078.51
2018-04-13T06:34:00.054Z,97086.45
2018-04-13T06:36:27.589Z,97087.77
2018-04-13T06:38:55.086Z,97095.48
2018-04-13T06:41:22.713Z,97092.62
2018-04-13T06:43:50.201Z,97097.32
2018-04-13T06:46:17.760Z,97091.25
2018-04-13T06:48:45.438Z,97100.50
2018-04-13T06:51:13.055Z,97107.63
2018-04-13T06:53:40.655Z,97110.72
2018-04-13T06:56:08.137Z,97115.41
2018-04-13T06:58:35.667Z,97129.40
2018-04-13T07:01:03.196Z,97125.05
2018-04-13T07:03:30.685Z,97134.20
2018-04-13T07:05:58.348Z,97140.26
2018-04-13T07:08:25.899Z,97132.83
2018-04-13T07:10:53.374Z,97142.70
2018-04-13T07:13:20.870Z,97145.81
2018-04-13T07:15:48.520Z,97144.38
2018-04-13T07:18:16.071Z,97150.88
2018-04-13T07:20:43.610Z,97155.99
2018-04-13T07:23:11.144Z,97162.43
2018-04-13T07:25:38.623Z,97163.55
2018-04-13T07:28:06.106Z,97168.09
2018-04-13T07:30:33.749Z,97171.42
2018-04-13T07:33:01.303Z,97175.05
2018-04-13T07:35:28.791Z,97179.36
2018-04-13T07:37:56.301Z,97179.80
2018-04-13T07:40:23.904Z,97187.86
2018-04-13T07:42:51.372Z,97193.63
2018-04-13T07:45:18.886Z,97190.77
2018-04-13T07:47:46.356Z,97193.16
2018-04-13T07:50:14.214Z,97189.37
2018-04-13T07:52:41.435Z,97194.23
2018-04-13T07:55:08.961Z,97195.63
2018-04-13T07:57:36.517Z,97196.16
2018-04-13T08:00:04.056Z,97201.87
2018-04-13T08:02:31.535Z,97204.32
2018-04-13T08:04:59.048Z,97206.00
2018-04-13T08:07:26.537Z,97206.03
2018-04-13T08:09:54.065Z,97212.14
2018-04-13T08:12:21.540Z,97213.35
2018-04-13T08:14:49.048Z,97208.25
2018-04-13T08:17:16.529Z,97215.58
2018-04-13T08:19:44.066Z,97220.13
2018-04-13T08:22:11.733Z,97229.28
2018-04-13T08:24:39.311Z,97230.00
2018-04-13T08:27:06.811Z,97239.69
2018-04-13T08:29:34.317Z,97239.56
2018-04-13T08:32:01.849Z,97245.27
2018-04-13T08:34:29.344Z,97249.55
2018-04-13T08:36:56.822Z,97253.22
2018-04-13T08:39:24.315Z,97262.14
2018-04-13T08:41:51.954Z,97263.41
2018-04-13T08:44:19.491Z,97267.75
2018-04-13T08:46:46.998Z,97273.20
2018-04-13T08:49:14.704Z,97271.20
2018-04-13T08:51:42.038Z,97283.30
2018-04-13T08:54:09.539Z,97289.14
2018-04-13T08:56:37.016Z,97294.03
2018-04-13T08:59:04.490Z,97301.92
2018-04-13T09:01:31.961Z,97304.70
2018-04-13T09:03:59.454Z,97314.59
2018-04-13T09:06:26.980Z,97322.68
2018-04-13T09:08:54.498Z,97334.37
2018-04-13T09:11:22.004Z,97338.03
2018-04-13T09:13:49.495Z,97338.11
2018-04-13T09:16:16.996Z,97348.22
2018-04-13T09:18:44.458Z,97358.58
2018-04-13T09:21:11.932Z,97363.41
2018-04-13T09:23:39.406Z,97369.02
2018-04-13T09:26:06.873Z,97375.05
2018-04-13T09:28:34.381Z,97383.52
2018-04-13T09:31:01.892Z,97387.78
2018-04-13T09:33:29.388Z,97396.63
2018-04-13T09:35:56.867Z,97398.88
2018-04-13T09:38:24.341Z,97407.52
2018-04-13T09:40:51.845Z,97415.95
2018-04-13T09:43:19.364Z,97420.02
2018-04-13T09:45:46.864Z,97430.66
2018-04-13T09:48:14.332Z,97441.36
2018-04-13T09:50:41.876Z,97443.61
2018-04-13T09:53:09.360Z,97449.14
2018-04-13T09:55:36.824Z,97454.64
2018-04-13T09:58:04.321Z,97456.71
2018-04-13T10:00:31.948Z,97467.12
2018-04-13T10:03:03.261Z,97473.51
2018-04-13T10:05:30.791Z,97498.38
2018-04-13T10:07:58.549Z,97489.05
2018-04-13T10:10:26.141Z,97497.39
2018-04-13T10:12:53.615Z,97507.94
2018-04-13T10:15:21.118Z,97493.00
2018-04-13T10:17:48.631Z,97507.80
2018-04-13T10:20:16.121Z,97520.97
2018-04-13T10:22:43.594Z,97530.38
2018-04-13T10:25:11.098Z,97534.53
2018-04-13T10:27:38.618Z,97555.34
2018-04-13T10:30:06.153Z,97557.67
2018-04-13T10:32:33.702Z,97561.76
2018-04-13T10:35:01.240Z,97577.48
2018-04-13T10:37:28.719Z,97583.57
2018-04-13T10:39:56.186Z,97585.86
2018-04-13T10:42:23.792Z,97598.69
2018-04-13T10:44:51.294Z,97602.80
2018-04-13T10:47:18.813Z,97600.05
2018-04-13T10:49:46.323Z,97615.34
2018-04-13T10:52:13.821Z,97621.11
2018-04-13T10:54:41.505Z,97622.39
2018-04-13T10:57:08.987Z,97619.86
2018-04-13T10:59:36.456Z,97641.08
2018-04-13T11:02:06.188Z,97638.91
2018-04-13T11:04:33.761Z,97645.53
2018-04-13T11:07:01.552Z,97651.47
2018-04-13T11:09:29.180Z,97649.23
2018-04-13T11:11:57.011Z,97658.53
2018-04-13T11:14:24.521Z,97667.75
2018-04-13T11:16:52.008Z,97674.86
2018-04-13T11:19:20.092Z,97682.45
2018-04-13T11:21:47.584Z,97681.27
2018-04-13T11:24:15.059Z,97691.91
2018-04-13T11:26:42.528Z,97696.70
2018-04-13T11:29:10.021Z,97704.95
2018-04-13T11:31:37.495Z,97711.92
2018-04-13T11:34:05.121Z,97720.78
2018-04-13T11:36:32.629Z,97723.91
2018-04-13T11:39:00.118Z,97732.38
2018-04-13T11:44:15.914Z,97748.80
2018-04-13T11:46:43.403Z,97755.28
2018-04-13T11:49:10.886Z,97764.75
2018-04-13T11:51:38.435Z,97765.72
2018-04-13T11:54:05.908Z,97770.38
2018-04-13T11:56:33.400Z,97772.84
2018-04-13T11:59:00.877Z,97776.91
2018-04-13T12:01:28.372Z,97786.17
2018-04-13T12:03:55.863Z,97787.34
2018-04-13T12:06:23.330Z,97792.38
2018-04-13T12:08:50.817Z,97798.41
2018-04-13T12:11:18.530Z,97799.40
2018-04-13T12:13:46.020Z,97802.78
2018-04-13T12:16:13.500Z,97805.58
2018-04-13T12:18:41.114Z,97809.85
2018-04-13T12:21:08.607Z,97815.66
2018-04-13T12:23:36.109Z,97818.36
2018-04-13T12:26:03.593Z,97822.91
2018-04-13T12:28:31.143Z,97826.36
2018-04-13T12:30:58.639Z,97831.56
2018-04-13T12:33:26.247Z,97830.71
2018-04-13T12:35:53.740Z,97847.80
2018-04-13T12:38:21.251Z,97846.88
2018-04-13T12:40:48.761Z,97853.63
2018-04-13T12:43:16.222Z,97855.17
2018-04-13T12:46:00.185Z,97867.58
2018-04-13T12:48:27.773Z,97862.91
2018-04-13T12:50:55.340Z,97872.50
2018-04-13T12:53:22.864Z,97882.59
2018-04-13T12:55:50.336Z,97883.02
2018-04-13T12:58:17.794Z,97887.59
2018-04-13T13:00:45.314Z,97885.27
2018-04-13T13:03:12.787Z,97894.14
2018-04-13T13:05:40.305Z,97899.20
2018-04-13T13:08:07.778Z,97901.20
2018-04-13T13:10:35.288Z,97898.45
2018-04-13T13:13:02.789Z,97908.22
2018-04-13T13:15:30.340Z,97903.48
2018-04-13T13:17:57.850Z,97904.33
2018-04-13T13:20:25.323Z,97900.20
2018-04-13T13:22:52.838Z,97880.48
2018-04-13T13:25:20.305Z,97887.59
2018-04-13T13:27:47.856Z,97910.79
2018-04-13T13:30:15.417Z,97917.70
2018-04-13T13:32:42.904Z,97926.37
2018-04-13T13:35:10.459Z,97938.06
2018-04-13T13:37:37.924Z,97942.91
2018-04-13T13:40:05.597Z,97947.27
2018-04-13T13:42:33.103Z,97951.44
2018-04-13T13:45:01.503Z,97952.76
2018-04-13T13:47:28.997Z,97960.42
2018-04-13T13:49:56.559Z,97962.64
2018-04-13T13:52:24.052Z,97961.64
2018-04-13T13:54:51.539Z,97964.27
2018-04-13T13:57:19.016Z,97971.79
2018-04-13T13:59:46.492Z,97982.08
2018-04-13T14:02:13.977Z,97990.06
2018-04-13T14:04:41.694Z,97991.55
2018-04-13T14:07:09.174Z,98002.06
2018-04-13T14:09:36.633Z,97998.17
2018-04-13T14:12:04.118Z,98006.02
2018-04-13T14:14:31.879Z,98012.16
2018-04-13T14:16:59.342Z,98006.59
2018-04-13T14:19:26.829Z,98026.92
2018-04-13T14:21:54.287Z,98020.98
2018-04-13T14:24:21.854Z,98022.14
2018-04-13T14:26:49.345Z,98028.80
2018-04-13T14:29:16.812Z,98036.20
2018-04-13T14:31:44.373Z,98035.02
2018-04-13T14:34:11.947Z,98039.37
2018-04-13T14:36:39.449Z,98036.70
2018-04-13T14:39:07.073Z,98040.53
2018-04-13T14:41:34.553Z,98045.52
2018-04-13T14:44:02.050Z,98039.78
2018-04-13T14:46:29.540Z,98046.61
2018-04-13T14:48:57.025Z,98045.92
2018-04-13T14:51:24.647Z,98049.94
2018-04-13T14:53:52.221Z,98054.59
2018-04-13T14:56:19.726Z,98056.64
2018-04-13T14:58:47.247Z,98049.08
2018-04-13T15:01:14.737Z,98052.84
2018-04-13T15:03:42.246Z,98049.37
2018-04-13T15:06:13.248Z,98055.95
2018-04-13T15:08:40.728Z,98052.11
2018-04-13T15:11:08.239Z,98050.22
2018-04-13T15:13:35.722Z,98051.07
2018-04-13T15:16:05.008Z,98056.74
2018-04-13T15:21:33.122Z,98064.17
2018-04-13T15:24:00.614Z,98067.61
2018-04-13T15:26:28.216Z,98063.20
2018-04-13T15:28:55.747Z,98067.05
2018-04-13T15:31:23.230Z,98078.70
2018-04-13T15:33:50.746Z,98069.64
2018-04-13T15:36:18.232Z,98068.75
2018-04-13T15:38:45.755Z,98071.98
2018-04-13T15:41:30.271Z,98074.59
2018-04-13T15:43:57.741Z,98067.59
2018-04-13T15:46:25.331Z,98073.55
2018-04-13T15:48:52.810Z,98062.59
2018-04-13T15:51:20.292Z,98060.25
2018-04-13T15:53:47.766Z,98062.05
2018-04-13T15:56:17.034Z,98058.10
2018-04-13T15:58:44.619Z,98050.45
2018-04-13T16:01:12.126Z,98048.69
2018-04-13T16:03:39.780Z,98044.20
2018-04-13T16:06:07.285Z,98042.06
2018-04-13T16:08:34.933Z,98046.19
2018-04-13T16:11:02.413Z,98043.87
2018-04-13T16:13:29.900Z,98037.27
2018-04-13T16:15:57.417Z,98040.87
2018-04-13T16:18:24.907Z,98042.81
2018-04-13T16:20:52.388Z,98043.94
2018-04-13T16:23:19.911Z,98038.08
2018-04-13T16:25:47.400Z,98042.98
2018-04-13T16:28:14.891Z,98037.80
2018-04-13T16:30:42.381Z,98041.84
2018-04-13T16:33:09.849Z,98040.75
2018-04-13T16:35:37.362Z,98032.70
2018-04-13T16:38:04.872Z,98028.92
2018-04-13T16:40:32.428Z,98029.39
2018-04-13T16:42:59.924Z,98030.39
2018-04-13T16:45:27.396Z,98034.84
2018-04-13T16:47:54.900Z,98044.31
2018-04-13T16:50:22.388Z,98049.47
2018-04-13T16:52:49.905Z,98049.05
2018-04-13T16:55:17.406Z,98047.47
2018-04-13T16:57:46.963Z,98043.47
2018-04-13T17:00:14.425Z,98045.94
2018-04-13T17:02:41.961Z,98048.80
2018-04-13T17:05:09.434Z,98051.40
2018-04-13T17:07:36.988Z,98059.84
2018-04-13T17:10:07.557Z,98062.58
2018-04-13T17:12:35.109Z,98066.97
2018-04-13T17:15:02.700Z,98073.18
2018-04-13T17:17:30.208Z,98066.23
2018-04-13T17:19:57.681Z,98064.42
2018-04-13T17:22:25.169Z,98075.89
2018-04-13T17:24:52.643Z,98082.38
2018-04-13T17:27:21.109Z,98082.88
2018-04-13T17:29:48.673Z,98087.91
2018-04-13T17:32:16.146Z,98086.78
2018-04-13T17:34:43.702Z,98083.22
2018-04-13T17:37:11.227Z,98089.95
2018-04-13T17:39:38.766Z,98087.45
2018-04-13T17:45:02.345Z,98105.13
2018-04-13T17:47:34.003Z,98113.06
2018-04-13T17:50:01.911Z,98120.16
2018-04-13T17:52:29.541Z,98125.52
2018-04-13T17:54:57.135Z,98129.67
2018-04-13T17:57:24.679Z,98123.39
2018-04-13T17:59:52.227Z,98130.02
2018-04-13T18:02:19.735Z,98138.30
2018-04-13T18:04:50.022Z,98140.03
2018-04-13T18:07:17.667Z,98144.31
2018-04-13T18:10:03.991Z,98150.77
2018-04-13T18:12:31.869Z,98153.73
2018-04-13T18:14:59.342Z,98161.77
2018-04-13T18:17:29.935Z,98163.23
2018-04-13T18:19:57.456Z,98174.13
2018-04-13T18:22:24.920Z,98172.83
2018-04-13T18:24:52.508Z,98174.75
2018-04-13T18:27:20.081Z,98174.41
2018-04-13T18:29:47.681Z,98178.53
2018-04-13T18:32:20.086Z,98190.99
2018-04-13T18:34:49.225Z,98188.98
2018-04-13T18:37:24.273Z,98200.55
2018-04-13T18:39:51.779Z,98208.07
2018-04-13T18:42:20.034Z,98207.72
2018-04-13T18:44:47.844Z,98212.64
2018-04-13T18:47:16.493Z,98213.20
2018-04-13T18:49:50.007Z,98212.02
2018-04-13T18:52:17.938Z,98218.53
2018-04-13T18:54:54.445Z,98216.48
2018-04-13T18:57:22.065Z,98221.42
2018-04-13T18:59:56.163Z,98225.80
2018-04-13T19:02:33.104Z,98232.00
2018-04-13T19:05:00.874Z,98234.29
2018-04-13T19:07:28.679Z,98235.66
2018-04-13T19:09:56.249Z,98233.93
2018-04-13T19:12:23.775Z,98237.20
2018-04-13T19:14:51.241Z,98245.66
2018-04-13T19:17:21.710Z,98251.89
2018-04-13T19:19:51.518Z,98256.03
2018-04-13T19:22:19.032Z,98258.19
2018-04-13T19:24:53.446Z,98257.81
2018-04-13T19:27:22.575Z,98260.47
2018-04-13T19:29:50.083Z,98265.73
2018-04-13T19:32:17.693Z,98268.87
2018-04-13T19:34:45.194Z,98273.16
2018-04-13T19:37:12.783Z,98272.33
2018-04-13T19:39:40.265Z,98270.66
2018-04-13T19:42:09.869Z,98273.85
2018-04-13T19:44:37.432Z,98276.40
2018-04-13T19:47:04.923Z,98282.63
2018-04-13T19:49:32.433Z,98285.27
2018-04-13T19:51:59.937Z,98286.63
2018-04-13T19:54:27.695Z,98286.20
2018-04-13T19:56:55.175Z,98287.15
2018-04-13T19:59:22.756Z,98296.81
2018-04-13T20:01:50.271Z,98293.37
2018-04-13T20:04:17.821Z,98290.34
2018-04-13T20:06:45.333Z,98290.38
2018-04-13T20:09:12.885Z,98288.19
2018-04-13T20:11:40.512Z,98284.70
2018-04-13T20:14:07.999Z,98285.08
2018-04-13T20:16:35.506Z,98285.48
2018-04-13T20:19:02.985Z,98281.50
2018-04-13T20:21:30.476Z,98279.71
2018-04-13T20:23:58.083Z,98282.36
2018-04-13T20:26:25.565Z,98281.50
2018-04-13T20:28:53.069Z,98282.72
2018-04-13T20:31:20.557Z,98288.22
2018-04-13T20:33:48.193Z,98278.91
2018-04-13T20:36:15.689Z,98282.29
2018-04-13T20:38:43.186Z,98283.56
2018-04-13T20:41:10.668Z,98286.65
2018-04-13T20:43:38.169Z,98290.62
2018-04-13T20:46:05.739Z,98290.28
2018-04-13T20:48:33.233Z,98292.98
2018-04-13T20:51:00.790Z,98297.44
2018-04-13T20:53:28.287Z,98292.83
2018-04-13T20:55:56.007Z,98294.81
2018-04-13T20:58:23.617Z,98301.00
2018-04-13T21:00:51.118Z,98301.64
2018-04-13T21:03:18.602Z,98305.62
2018-04-13T21:05:46.098Z,98310.66
2018-04-13T21:08:15.483Z,98305.95
2018-04-13T21:10:42.984Z,98302.99
2018-04-13T21:13:10.474Z,98305.30
2018-04-13T21:15:37.986Z,98306.61
2018-04-13T21:18:05.478Z,98306.73
2018-04-13T21:20:32.968Z,98308.51
2018-04-13T21:23:00.446Z,98308.11
2018-04-13T21:25:28.021Z,98304.27
2018-04-13T21:27:55.492Z,98304.36
2018-04-13T21:30:23.038Z,98309.98
2018-04-13T21:32:50.540Z,98311.02
2018-04-13T21:35:18.068Z,98307.98
2018-04-13T21:37:45.553Z,98319.91
2018-04-13T21:40:13.025Z,98323.89
2018-04-13T21:42:40.501Z,98322.13
2018-04-13T21:45:08.106Z,98326.96
2018-04-13T21:47:35.572Z,98331.05
2018-04-13T21:50:03.072Z,98333.77
2018-04-13T21:52:30.625Z,98340.42
2018-04-13T21:54:58.093Z,98343.14
2018-04-13T21:57:25.600Z,98340.61
2018-04-13T21:59:53.138Z,98349.42
2018-04-13T22:02:20.658Z,98350.30
2018-04-13T22:04:48.129Z,98351.18
2018-04-13T22:07:15.613Z,98351.25
2018-04-13T22:09:43.087Z,98347.80
2018-04-13T22:12:22.385Z,98350.48
2018-04-13T22:14:54.865Z,98364.53
2018-04-13T22:17:22.364Z,98358.38
2018-04-13T22:19:50.979Z,98362.42
2018-04-13T22:22:18.472Z,98372.92
2018-04-13T22:24:46.042Z,98369.39
2018-04-13T22:27:13.646Z,98376.45
2018-04-13T22:29:41.146Z,98373.83
2018-04-13T22:32:08.645Z,98383.88
2018-04-13T22:34:36.140Z,98388.67
2018-04-13T22:37:03.616Z,98379.13
2018-04-13T22:39:31.105Z,98383.95
2018-04-13T22:41:58.607Z,98387.05
2018-04-13T22:44:26.137Z,98393.55
2018-04-13T22:46:53.661Z,98382.69
2018-04-13T22:49:21.141Z,98373.98
2018-04-13T22:51:48.771Z,98381.48
2018-04-13T22:54:16.249Z,98387.25
2018-04-13T22:56:43.746Z,98392.87
2018-04-13T22:59:11.238Z,98401.19
2018-04-13T23:01:39.507Z,98397.25
2018-04-13T23:04:07.000Z,98401.66
2018-04-13T23:06:34.458Z,98399.87
2018-04-13T23:09:01.938Z,98391.57
2018-04-13T23:11:29.451Z,98394.20
2018-04-13T23:13:56.943Z,98400.81
2018-04-13T23:16:24.448Z,98408.28
2018-04-13T23:18:51.918Z,98410.07
2018-04-13T23:21:19.395Z,98405.25
2018-04-13T23:23:46.879Z,98409.58
2018-04-13T23:26:14.457Z,98412.57
2018-04-13T23:28:41.932Z,98408.16
2018-04-13T23:31:09.424Z,98417.31
2018-04-13T23:33:36.932Z,98420.82
2018-04-13T23:36:04.457Z,98417.84
2018-04-13T23:38:31.959Z,98421.27
2018-04-13T23:40:59.427Z,98421.27
2018-04-13T23:43:26.901Z,98414.70
2018-04-13T23:45:54.376Z,98427.83
2018-04-13T23:48:21.903Z,98429.63
2018-04-13T23:50:49.400Z,98431.27
2018-04-13T23:53:16.886Z,98436.42
2018-04-13T23:55:44.365Z,98435.52
2018-04-13T23:58:11.864Z,98439.42
